Time;durP1;ratioP1;P1;durP2;ratioP2;P2;SDS_P1;SDS_P2;PMS_P1;PMS_P2;Temp;Humidity;BMP_temperature;BMP_pressure;BME280_temperature;BME280_humidity;BME280_pressure;Samples;Min_cycle;Max_cycle;Signal;HPM_P1;HPM_P2
2022/05/27 00:01:14;;;;;;;4.75;2.20;;;14.10;99.90;;;;;;4982542;28;20045;-72
2022/05/27 00:03:40;;;;;;;2.85;1.05;;;14.10;99.90;;;;;;4982090;28;20074;-72
2022/05/27 00:06:05;;;;;;;10.25;2.85;;;14.00;99.90;;;;;;4982572;28;20096;-73
2022/05/27 00:08:31;;;;;;;1.95;1.73;;;14.00;99.90;;;;;;4983354;28;20049;-73
2022/05/27 00:10:59;;;;;;;2.30;1.30;;;13.90;99.90;;;;;;4981758;28;20050;-72
2022/05/27 00:13:25;;;;;;;3.17;2.13;;;13.80;99.90;;;;;;4981221;28;20508;-72
2022/05/27 00:15:51;;;;;;;9.98;1.77;;;13.80;99.90;;;;;;4981756;28;20129;-72
2022/05/27 00:18:17;;;;;;;7.15;2.03;;;13.80;99.90;;;;;;4980832;28;20410;-72
2022/05/27 00:20:43;;;;;;;2.78;1.80;;;13.70;99.90;;;;;;4981272;28;20050;-72
2022/05/27 00:23:09;;;;;;;4.47;2.15;;;13.70;99.90;;;;;;4981812;28;20072;-72
2022/05/27 00:25:34;;;;;;;5.30;1.55;;;13.70;99.90;;;;;;4982632;28;20053;-72
2022/05/27 00:28:00;;;;;;;3.30;1.45;;;13.70;99.90;;;;;;4981490;28;20046;-73
2022/05/27 00:30:27;;;;;;;12.30;1.95;;;13.70;99.90;;;;;;4982989;28;20460;-73
2022/05/27 00:32:52;;;;;;;7.03;1.50;;;13.60;99.90;;;;;;4980765;28;20548;-72
2022/05/27 00:35:18;;;;;;;3.58;2.40;;;13.60;99.90;;;;;;4981164;28;20091;-72
2022/05/27 00:37:43;;;;;;;1.83;1.13;;;13.60;99.90;;;;;;4981631;28;20489;-72
2022/05/27 00:40:10;;;;;;;2.83;1.88;;;13.60;99.90;;;;;;4981909;28;20501;-72
2022/05/27 00:42:40;;;;;;;2.63;1.20;;;13.50;99.90;;;;;;4982384;28;20038;-72
2022/05/27 00:45:12;;;;;;;3.30;1.50;;;13.50;99.90;;;;;;4982255;28;20031;-72
2022/05/27 00:47:38;;;;;;;6.88;1.95;;;13.50;99.90;;;;;;4982011;28;20058;-72
2022/05/27 00:50:08;;;;;;;6.22;2.22;;;13.40;99.90;;;;;;4980636;28;20405;-72
2022/05/27 00:52:37;;;;;;;5.57;2.42;;;13.40;99.90;;;;;;4982444;28;20031;-72
2022/05/27 00:55:06;;;;;;;3.00;1.23;;;13.40;99.90;;;;;;4979409;28;20042;-72
2022/05/27 00:58:22;;;;;;;4.88;2.25;;;13.40;99.90;;;;;;4982230;28;20120;-72
2022/05/27 01:00:48;;;;;;;2.42;2.03;;;13.30;99.90;;;;;;4965214;28;20116;-72
2022/05/27 01:03:15;;;;;;;1.92;1.27;;;13.20;99.90;;;;;;4983569;28;20129;-72
2022/05/27 01:05:44;;;;;;;3.83;1.52;;;13.20;99.90;;;;;;4985698;28;20072;-72
2022/05/27 01:08:13;;;;;;;2.15;1.52;;;13.20;99.90;;;;;;4984853;28;20084;-72
2022/05/27 01:11:20;;;;;;;4.82;1.98;;;13.20;99.90;;;;;;4984121;28;20065;-72
2022/05/27 01:13:57;;;;;;;2.40;1.38;;;13.20;99.90;;;;;;4984711;28;20058;-72
2022/05/27 01:16:38;;;;;;;3.40;2.20;;;13.10;99.90;;;;;;4985673;28;20050;-72
2022/05/27 01:23:03;;;;;;;2.50;1.75;;;13.10;99.90;;;;;;4984600;28;20128;-72
2022/05/27 01:25:48;;;;;;;3.95;1.08;;;13.10;99.90;;;;;;4985326;28;20448;-72
2022/05/27 01:28:28;;;;;;;2.10;1.85;;;13.10;99.90;;;;;;4984061;28;20140;-72
2022/05/27 01:31:17;;;;;;;2.80;1.58;;;13.10;99.90;;;;;;4984488;28;20616;-72
2022/05/27 01:34:08;;;;;;;6.05;1.77;;;13.00;99.90;;;;;;4983822;28;20054;-72
2022/05/27 01:36:50;;;;;;;5.80;2.15;;;13.00;99.90;;;;;;4984769;28;20097;-72
2022/05/27 01:39:44;;;;;;;2.88;1.65;;;13.00;99.90;;;;;;4984996;28;20133;-72
2022/05/27 01:42:47;;;;;;;0.90;0.90;;;12.90;99.90;;;;;;4985250;28;20046;-72
2022/05/27 01:45:39;;;;;;;2.88;1.25;;;13.00;99.90;;;;;;4985218;28;20625;-72
2022/05/27 01:48:10;;;;;;;2.95;1.88;;;13.00;99.90;;;;;;4983036;28;20046;-72
2022/05/27 01:50:47;;;;;;;2.93;1.33;;;12.90;99.90;;;;;;4983969;28;20082;-72
2022/05/27 01:53:44;;;;;;;4.00;1.25;;;12.90;99.90;;;;;;4983436;28;20289;-72
2022/05/27 01:56:14;;;;;;;7.25;1.90;;;12.90;99.90;;;;;;4967069;28;20512;-72
2022/05/27 01:58:49;;;;;;;5.53;1.85;;;12.90;99.90;;;;;;4985449;28;20127;-72
2022/05/27 02:01:23;;;;;;;1.17;1.02;;;12.90;99.90;;;;;;4984565;28;20042;-72
2022/05/27 02:03:58;;;;;;;3.85;1.90;;;12.90;99.90;;;;;;4985163;28;20038;-72
2022/05/27 02:06:33;;;;;;;2.35;1.45;;;12.80;99.90;;;;;;4983781;28;20437;-72
2022/05/27 02:09:19;;;;;;;9.50;2.17;;;12.80;99.90;;;;;;4984032;28;20054;-72
2022/05/27 02:11:49;;;;;;;4.78;2.20;;;12.80;99.90;;;;;;4983244;28;20058;-72
2022/05/27 02:14:39;;;;;;;2.58;1.58;;;12.70;99.90;;;;;;4984645;28;20042;-72
2022/05/27 02:17:15;;;;;;;2.47;2.22;;;12.70;99.90;;;;;;4981797;28;20058;-72
2022/05/27 02:19:58;;;;;;;4.78;1.35;;;12.60;99.90;;;;;;4985023;28;20049;-72
2022/05/27 02:22:38;;;;;;;4.50;1.67;;;12.60;99.90;;;;;;4984426;28;20081;-72
2022/05/27 02:25:17;;;;;;;1.55;1.45;;;12.60;99.90;;;;;;4984551;28;20096;-72
2022/05/27 02:28:11;;;;;;;1.60;1.20;;;12.50;99.90;;;;;;4983448;28;20085;-72
2022/05/27 02:30:41;;;;;;;3.13;1.83;;;12.40;99.90;;;;;;4959142;28;20124;-72
2022/05/27 02:35:59;;;;;;;8.75;1.88;;;12.30;99.90;;;;;;4983853;28;20066;-71
2022/05/27 02:38:27;;;;;;;2.00;1.45;;;12.30;99.90;;;;;;4984477;28;20052;-72
2022/05/27 02:40:55;;;;;;;1.35;1.25;;;12.20;99.90;;;;;;4984423;28;20039;-72
2022/05/27 02:43:45;;;;;;;12.48;1.52;;;12.20;99.90;;;;;;4984261;28;20061;-72
2022/05/27 02:46:20;;;;;;;3.58;2.20;;;12.20;99.90;;;;;;4983811;28;20121;-72
2022/05/27 02:49:11;;;;;;;9.88;2.53;;;12.20;99.90;;;;;;4984334;28;20042;-72
2022/05/27 02:51:56;;;;;;;6.10;2.17;;;12.10;99.90;;;;;;4983894;28;20077;-72
2022/05/27 02:54:38;;;;;;;2.35;1.85;;;12.10;99.90;;;;;;4982279;28;20105;-72
2022/05/27 02:57:27;;;;;;;2.90;1.92;;;12.10;99.90;;;;;;4983601;28;20653;-72
2022/05/27 02:59:54;;;;;;;10.75;2.08;;;12.10;99.90;;;;;;4984334;28;20030;-72
2022/05/27 03:02:20;;;;;;;2.97;2.35;;;12.10;99.90;;;;;;4982642;28;20041;-72
2022/05/27 03:04:53;;;;;;;2.38;1.80;;;12.00;99.90;;;;;;4983984;28;20046;-71
2022/05/27 03:07:40;;;;;;;8.07;1.67;;;12.00;99.90;;;;;;4983466;28;20528;-72
2022/05/27 03:10:35;;;;;;;4.75;1.85;;;12.00;99.90;;;;;;4983529;28;20105;-72
2022/05/27 03:13:25;;;;;;;3.03;2.00;;;11.90;99.90;;;;;;4964471;28;20129;-73
2022/05/27 03:16:12;;;;;;;5.35;2.47;;;11.90;99.90;;;;;;4983058;28;20361;-72
2022/05/27 03:19:00;;;;;;;7.47;2.05;;;11.80;99.90;;;;;;4983336;28;20510;-72
2022/05/27 03:21:32;;;;;;;4.40;1.88;;;11.80;99.90;;;;;;4982771;28;20226;-72
2022/05/27 03:24:18;;;;;;;6.50;1.63;;;11.80;99.90;;;;;;4984238;28;20157;-71
2022/05/27 03:27:04;;;;;;;5.20;1.80;;;11.70;99.90;;;;;;4982726;28;20049;-72
2022/05/27 03:29:51;;;;;;;1.63;1.52;;;11.70;99.90;;;;;;4982879;28;20101;-72
2022/05/27 03:32:28;;;;;;;15.60;3.20;;;11.70;99.90;;;;;;4982167;28;20045;-72
2022/05/27 03:35:08;;;;;;;1.63;0.93;;;11.70;99.90;;;;;;4983167;28;20038;-72
2022/05/27 03:38:04;;;;;;;9.63;1.38;;;11.70;99.90;;;;;;4982130;28;20042;-72
2022/05/27 03:40:47;;;;;;;2.42;1.58;;;11.70;99.90;;;;;;4981561;28;20062;-72
2022/05/27 03:43:14;;;;;;;8.98;2.90;;;11.70;99.90;;;;;;4982550;28;20044;-72
2022/05/27 03:45:52;;;;;;;1.75;1.30;;;11.70;99.90;;;;;;4982247;28;20054;-71
2022/05/27 03:48:19;;;;;;;11.85;3.05;;;11.80;99.90;;;;;;4976518;28;20034;-71
2022/05/27 03:50:48;;;;;;;2.35;1.27;;;11.80;99.90;;;;;;4983429;28;20697;-72
2022/05/27 03:53:14;;;;;;;2.17;1.98;;;11.90;99.90;;;;;;4982766;28;20042;-72
2022/05/27 03:55:44;;;;;;;1.98;1.33;;;11.80;99.90;;;;;;4981825;28;20046;-72
2022/05/27 03:58:14;;;;;;;8.60;1.85;;;11.90;99.90;;;;;;4982554;28;20050;-72
2022/05/27 04:00:41;;;;;;;2.05;1.40;;;11.90;99.90;;;;;;4982573;28;20497;-72
2022/05/27 04:03:11;;;;;;;5.50;1.45;;;11.90;99.90;;;;;;4981727;28;20413;-72
2022/05/27 04:05:38;;;;;;;4.00;2.20;;;12.00;99.90;;;;;;4981452;28;20105;-72
2022/05/27 04:08:05;;;;;;;2.42;1.65;;;11.90;99.90;;;;;;4981455;28;20750;-72
2022/05/27 04:10:30;;;;;;;3.42;1.52;;;12.00;99.90;;;;;;4982962;28;20054;-71
2022/05/27 04:12:56;;;;;;;8.05;2.35;;;12.00;99.90;;;;;;4983058;28;20100;-72
2022/05/27 04:15:22;;;;;;;7.45;1.98;;;12.00;99.90;;;;;;4982646;28;20500;-72
2022/05/27 04:17:48;;;;;;;5.30;2.42;;;11.90;99.90;;;;;;4981476;28;20046;-72
2022/05/27 04:20:16;;;;;;;8.65;2.35;;;11.90;99.90;;;;;;4979277;28;20038;-72
2022/05/27 04:22:42;;;;;;;3.67;1.23;;;11.90;99.90;;;;;;4982493;28;20039;-72
2022/05/27 04:25:08;;;;;;;6.25;2.38;;;11.90;99.90;;;;;;4982261;28;20421;-72
2022/05/27 04:27:34;;;;;;;1.35;1.17;;;11.90;99.90;;;;;;4965194;28;20034;-72
2022/05/27 04:30:00;;;;;;;7.88;2.47;;;11.90;99.90;;;;;;4982804;28;20756;-71
2022/05/27 04:32:26;;;;;;;4.25;2.05;;;12.00;99.90;;;;;;4982136;28;20046;-71
2022/05/27 04:34:55;;;;;;;3.47;1.85;;;12.00;99.90;;;;;;4982566;28;20089;-72
2022/05/27 04:37:22;;;;;;;3.90;1.58;;;12.00;99.90;;;;;;4982991;28;20054;-72
2022/05/27 04:39:48;;;;;;;2.80;1.80;;;12.00;99.90;;;;;;4986558;28;20042;-71
2022/05/27 04:42:14;;;;;;;1.55;1.45;;;12.00;99.90;;;;;;4986010;28;20092;-72
2022/05/27 04:44:40;;;;;;;3.08;1.40;;;12.00;99.90;;;;;;4985264;28;20133;-71
2022/05/27 04:47:07;;;;;;;2.90;0.90;;;12.00;99.90;;;;;;4985345;28;20057;-72
2022/05/27 04:52:22;;;;;;;6.20;2.08;;;12.10;99.90;;;;;;4970666;28;20046;-71
2022/05/27 04:54:48;;;;;;;3.60;1.75;;;12.10;99.90;;;;;;4984831;28;20042;-71
2022/05/27 04:57:17;;;;;;;4.00;1.92;;;12.20;99.90;;;;;;4984097;28;20529;-72
2022/05/27 04:59:46;;;;;;;5.28;2.10;;;12.20;99.90;;;;;;4986162;28;20034;-71
2022/05/27 05:02:13;;;;;;;5.50;1.70;;;12.20;99.90;;;;;;4984996;28;20062;-71
2022/05/27 05:04:38;;;;;;;11.60;1.70;;;12.30;99.90;;;;;;4986194;28;20117;-72
2022/05/27 05:07:08;;;;;;;6.43;2.10;;;12.30;99.90;;;;;;4985532;28;20544;-71
2022/05/27 05:09:38;;;;;;;6.95;2.00;;;12.30;99.90;;;;;;4985930;28;20042;-71
2022/05/27 05:12:06;;;;;;;4.10;1.20;;;12.30;99.90;;;;;;4985686;28;20401;-72
2022/05/27 05:14:31;;;;;;;1.80;1.30;;;12.30;99.90;;;;;;4984610;28;20043;-72
2022/05/27 05:16:57;;;;;;;10.55;2.00;;;12.30;99.90;;;;;;4985698;28;20100;-71
2022/05/27 05:19:23;;;;;;;4.55;2.88;;;12.40;99.90;;;;;;4985178;28;20046;-71
2022/05/27 05:21:48;;;;;;;7.70;2.25;;;12.40;99.90;;;;;;4984484;28;20039;-71
2022/05/27 05:24:14;;;;;;;7.05;1.50;;;12.40;99.90;;;;;;4985562;28;20690;-71
2022/05/27 05:26:39;;;;;;;3.50;2.00;;;12.40;99.90;;;;;;4985265;28;20046;-71
2022/05/27 05:29:08;;;;;;;2.63;1.25;;;12.50;99.90;;;;;;4985692;28;20046;-71
2022/05/27 05:31:34;;;;;;;6.93;2.13;;;12.50;99.90;;;;;;4984882;28;20050;-71
2022/05/27 05:34:00;;;;;;;12.57;3.28;;;12.50;99.90;;;;;;4985644;28;20042;-71
2022/05/27 05:36:27;;;;;;;1.10;1.05;;;12.60;99.90;;;;;;4968455;28;20065;-71
2022/05/27 05:38:52;;;;;;;11.30;1.88;;;12.70;99.90;;;;;;4985210;28;20041;-71
2022/05/27 05:41:31;;;;;;;10.95;1.73;;;12.70;99.90;;;;;;4985223;28;20459;-71
2022/05/27 05:43:58;;;;;;;9.93;1.83;;;12.80;99.90;;;;;;4985509;28;20057;-71
2022/05/27 05:46:25;;;;;;;5.50;2.20;;;12.80;99.90;;;;;;4980613;28;20055;-71
2022/05/27 05:48:51;;;;;;;1.35;1.02;;;12.90;99.90;;;;;;4984407;28;20053;-71
2022/05/27 05:51:17;;;;;;;7.85;1.98;;;12.90;99.90;;;;;;4985069;28;20038;-71
2022/05/27 05:53:43;;;;;;;2.80;1.52;;;12.90;99.90;;;;;;4984952;28;20577;-71
2022/05/27 05:56:09;;;;;;;1.17;0.98;;;13.00;99.90;;;;;;4983369;28;20165;-72
2022/05/27 05:58:35;;;;;;;7.03;1.42;;;12.90;99.90;;;;;;4982912;28;20467;-72
2022/05/27 06:01:01;;;;;;;1.45;1.17;;;12.90;99.90;;;;;;4975144;28;20133;-73
2022/05/27 06:03:26;;;;;;;4.45;1.60;;;12.90;99.90;;;;;;4982172;28;20047;-73
2022/05/27 06:05:52;;;;;;;4.13;1.70;;;12.90;99.90;;;;;;4961549;28;20046;-74
2022/05/27 06:08:21;;;;;;;0.90;0.90;;;12.90;99.90;;;;;;4985291;28;20396;-73
2022/05/27 06:10:48;;;;;;;1.80;1.15;;;12.90;99.90;;;;;;4984599;28;20058;-73
2022/05/27 06:13:13;;;;;;;1.75;1.08;;;12.90;99.90;;;;;;4984769;28;20592;-73
2022/05/27 06:15:39;;;;;;;6.22;1.40;;;12.90;99.90;;;;;;4984076;28;20050;-73
2022/05/27 06:18:06;;;;;;;3.80;1.58;;;12.90;99.90;;;;;;4982212;28;20065;-72
2022/05/27 06:20:32;;;;;;;3.08;1.73;;;12.90;99.90;;;;;;4984681;28;20081;-75
2022/05/27 06:23:07;;;;;;;10.38;2.13;;;12.90;99.90;;;;;;4983287;28;20073;-73
2022/05/27 06:25:33;;;;;;;4.15;1.58;;;13.00;99.90;;;;;;4984701;28;20051;-73
2022/05/27 06:36:13;;;;;;;5.97;1.27;;;13.00;99.90;;;;;;4982407;28;20054;-76
2022/05/27 06:38:39;;;;;;;2.75;1.50;;;13.00;99.90;;;;;;4983304;28;20049;-75
2022/05/27 06:41:04;;;;;;;3.33;1.70;;;13.00;99.90;;;;;;4982597;28;20042;-76
2022/05/27 06:43:31;;;;;;;2.63;1.58;;;13.00;99.90;;;;;;4984756;28;20141;-75
2022/05/27 06:45:58;;;;;;;8.05;2.15;;;12.90;99.90;;;;;;4983023;28;20034;-76
2022/05/27 06:48:24;;;;;;;4.72;2.20;;;13.00;99.90;;;;;;4970019;28;20046;-77
2022/05/27 06:50:49;;;;;;;2.78;1.58;;;13.10;99.90;;;;;;4979234;28;20065;-76
2022/05/27 06:53:15;;;;;;;3.28;1.17;;;13.10;99.90;;;;;;4977501;28;20125;-76
2022/05/27 06:55:41;;;;;;;6.28;2.03;;;13.10;99.90;;;;;;4981423;28;20046;-75
2022/05/27 06:58:07;;;;;;;1.88;1.45;;;13.10;99.90;;;;;;4988891;28;20034;-76
2022/05/27 07:00:32;;;;;;;4.18;1.67;;;13.20;99.90;;;;;;4982385;28;20057;-77
2022/05/27 07:02:58;;;;;;;4.78;1.67;;;13.30;99.90;;;;;;4982698;28;20030;-77
2022/05/27 07:05:24;;;;;;;1.83;1.33;;;13.20;99.90;;;;;;4983651;28;20089;-76
2022/05/27 07:07:50;;;;;;;2.75;1.88;;;13.30;99.90;;;;;;4976458;28;20464;-77
2022/05/27 07:10:16;;;;;;;2.63;2.38;;;13.30;99.90;;;;;;4982750;28;20568;-76
2022/05/27 07:12:42;;;;;;;3.13;1.48;;;13.20;99.90;;;;;;4982602;28;20125;-76
2022/05/27 07:15:08;;;;;;;2.67;1.75;;;13.20;99.90;;;;;;4981892;28;20030;-76
2022/05/27 07:17:35;;;;;;;1.70;1.27;;;13.20;99.90;;;;;;4982888;28;20274;-76
2022/05/27 07:20:02;;;;;;;1.58;1.40;;;13.10;99.90;;;;;;4983461;28;20556;-76
2022/05/27 07:22:28;;;;;;;4.43;1.77;;;13.10;99.90;;;;;;4982381;28;20489;-76
2022/05/27 07:24:54;;;;;;;8.75;2.28;;;13.00;99.90;;;;;;4983577;28;20092;-76
2022/05/27 07:27:19;;;;;;;2.67;1.95;;;13.00;99.90;;;;;;4983087;28;20042;-76
2022/05/27 07:29:45;;;;;;;6.32;1.67;;;13.00;99.90;;;;;;4983654;28;20035;-77
2022/05/27 07:32:10;;;;;;;5.88;1.40;;;13.00;99.90;;;;;;4982692;28;20481;-76
2022/05/27 07:34:36;;;;;;;10.35;2.30;;;13.00;99.90;;;;;;4982063;28;20049;-76
2022/05/27 07:37:02;;;;;;;4.78;1.63;;;13.10;99.90;;;;;;4983321;28;20577;-77
2022/05/27 07:39:27;;;;;;;7.65;1.73;;;13.10;99.90;;;;;;4979052;28;20030;-77
2022/05/27 07:41:53;;;;;;;3.70;1.33;;;13.20;99.90;;;;;;4970124;28;20042;-76
2022/05/27 07:44:19;;;;;;;2.05;0.90;;;13.20;99.90;;;;;;4980260;28;20054;-75
2022/05/27 07:46:44;;;;;;;3.58;0.47;;;13.30;99.90;;;;;;4983449;28;20121;-74
2022/05/27 07:49:10;;;;;;;2.83;1.63;;;13.30;99.90;;;;;;4983154;28;20665;-74
2022/05/27 07:51:36;;;;;;;3.45;1.95;;;13.30;99.90;;;;;;4985681;28;20065;-75
2022/05/27 07:54:02;;;;;;;4.15;1.70;;;13.20;99.90;;;;;;4978212;28;20054;-74
2022/05/27 07:56:27;;;;;;;3.10;1.83;;;13.20;99.90;;;;;;4982054;28;20046;-74
2022/05/27 07:58:53;;;;;;;4.75;0.88;;;13.20;99.90;;;;;;4981496;28;20050;-74
2022/05/27 08:01:21;;;;;;;1.70;1.10;;;13.20;99.90;;;;;;4980454;28;20142;-74
2022/05/27 08:03:47;;;;;;;4.95;1.77;;;13.20;99.90;;;;;;4976988;28;20051;-74
2022/05/27 08:06:12;;;;;;;4.13;1.92;;;13.20;99.90;;;;;;4982485;28;20046;-73
2022/05/27 08:08:38;;;;;;;2.40;1.67;;;13.30;99.90;;;;;;4981612;28;20137;-73
2022/05/27 08:11:06;;;;;;;0.82;0.82;;;13.40;99.90;;;;;;4970980;28;20046;-73
2022/05/27 08:13:32;;;;;;;8.05;2.03;;;13.40;99.90;;;;;;4969663;28;20516;-73
2022/05/27 08:15:58;;;;;;;3.22;1.52;;;13.40;99.90;;;;;;4980784;28;20061;-73
2022/05/27 08:18:24;;;;;;;3.25;1.88;;;13.40;99.90;;;;;;4974023;28;20043;-74
2022/05/27 08:20:50;;;;;;;2.25;1.85;;;13.40;99.90;;;;;;4967187;28;20133;-72
2022/05/27 08:23:15;;;;;;;2.15;0.77;;;13.40;99.90;;;;;;4973353;28;20483;-72
2022/05/27 08:25:41;;;;;;;2.85;1.63;;;13.30;99.90;;;;;;4963770;28;20051;-74
2022/05/27 08:28:07;;;;;;;2.38;0.60;;;13.30;99.90;;;;;;4977319;28;20043;-74
2022/05/27 08:30:35;;;;;;;2.08;0.90;;;13.40;99.90;;;;;;4964536;28;20049;-73
2022/05/27 08:33:01;;;;;;;1.73;1.58;;;13.50;99.90;;;;;;4969346;28;20042;-73
2022/05/27 08:38:20;;;;;;;2.03;1.83;;;13.50;99.90;;;;;;4970116;28;20061;-74
2022/05/27 08:41:14;;;;;;;5.78;1.92;;;13.50;99.90;;;;;;4965494;28;20741;-72
2022/05/27 08:44:16;;;;;;;4.13;1.42;;;13.60;99.90;;;;;;4976616;28;20513;-73
2022/05/27 08:46:44;;;;;;;4.70;1.17;;;13.70;99.90;;;;;;4968541;28;20636;-77
2022/05/27 08:49:18;;;;;;;2.50;1.73;;;13.70;99.90;;;;;;4978122;28;20133;-73
2022/05/27 08:51:53;;;;;;;2.92;1.17;;;13.60;99.90;;;;;;4966651;28;20053;-73
2022/05/27 08:54:32;;;;;;;14.15;2.60;;;13.60;99.90;;;;;;4969566;28;20137;-72
2022/05/27 09:00:14;;;;;;;4.55;1.80;;;13.70;99.90;;;;;;4972330;28;20401;-73
2022/05/27 09:02:53;;;;;;;3.22;1.50;;;13.70;99.90;;;;;;4954660;28;20058;-73
2022/05/27 09:05:26;;;;;;;3.47;2.15;;;13.70;99.90;;;;;;4977398;28;20113;-76
2022/05/27 09:08:22;;;;;;;4.78;1.77;;;13.60;99.90;;;;;;4972661;28;20042;-75
2022/05/27 09:11:16;;;;;;;4.00;1.45;;;13.60;99.90;;;;;;4962832;28;20863;-76
2022/05/27 09:13:41;;;;;;;5.07;1.10;;;13.80;99.90;;;;;;4975656;28;20105;-76
2022/05/27 09:16:33;;;;;;;1.63;1.52;;;13.70;99.90;;;;;;4963294;28;20405;-76
2022/05/27 09:19:15;;;;;;;0.88;0.88;;;13.80;99.90;;;;;;4969820;28;20256;-76
2022/05/27 09:22:07;;;;;;;3.78;1.52;;;13.80;99.90;;;;;;4974663;28;20054;-75
2022/05/27 09:24:45;;;;;;;0.60;0.60;;;13.80;99.90;;;;;;4989175;28;20046;-76
2022/05/27 09:27:36;;;;;;;2.30;0.55;;;13.90;99.90;;;;;;4957583;28;20517;-75
2022/05/27 09:30:08;;;;;;;1.67;1.15;;;13.80;99.90;;;;;;4974988;28;20050;-74
2022/05/27 09:32:51;;;;;;;4.28;1.70;;;13.80;99.90;;;;;;4972664;28;20094;-74
2022/05/27 09:35:25;;;;;;;5.18;1.38;;;13.80;99.90;;;;;;4974409;28;20409;-75
2022/05/27 09:37:54;;;;;;;5.75;1.35;;;13.90;99.90;;;;;;4973912;28;20053;-77
2022/05/27 09:40:30;;;;;;;2.63;1.35;;;13.90;99.90;;;;;;4973869;28;20113;-74
2022/05/27 09:43:25;;;;;;;1.75;1.10;;;13.80;99.90;;;;;;4973503;28;20054;-74
2022/05/27 09:46:01;;;;;;;3.58;2.13;;;13.80;99.90;;;;;;4981590;28;20293;-75
2022/05/27 09:48:27;;;;;;;4.03;1.27;;;13.90;99.90;;;;;;4970353;28;20066;-74
2022/05/27 09:50:57;;;;;;;4.38;1.05;;;13.90;99.90;;;;;;4967679;28;20516;-75
2022/05/27 09:53:31;;;;;;;1.63;1.33;;;13.90;99.90;;;;;;4976111;28;20346;-75
2022/05/27 09:56:04;;;;;;;3.40;1.65;;;13.90;99.90;;;;;;4983866;28;20480;-75
2022/05/27 09:58:43;;;;;;;1.60;1.30;;;14.00;99.90;;;;;;4980615;28;20130;-74
2022/05/27 10:01:22;;;;;;;4.53;1.75;;;14.00;99.90;;;;;;4982257;28;20181;-74
2022/05/27 10:03:59;;;;;;;10.18;2.13;;;14.00;99.90;;;;;;4985383;28;20092;-73
2022/05/27 10:06:27;;;;;;;3.70;1.38;;;14.00;99.90;;;;;;4984543;28;20070;-73
2022/05/27 10:08:55;;;;;;;3.20;1.52;;;14.00;99.90;;;;;;4983628;28;20042;-74
2022/05/27 10:11:32;;;;;;;2.85;1.45;;;13.90;99.90;;;;;;4980614;28;20061;-73
2022/05/27 10:14:07;;;;;;;4.43;1.63;;;13.90;99.90;;;;;;4957286;28;20409;-74
2022/05/27 10:16:34;;;;;;;2.30;0.77;;;13.90;99.90;;;;;;4961318;28;20113;-75
2022/05/27 10:19:23;;;;;;;1.88;1.58;;;13.90;99.90;;;;;;4983921;28;20034;-74
2022/05/27 10:22:07;;;;;;;5.32;1.63;;;13.90;99.90;;;;;;4974497;28;20078;-74
2022/05/27 10:24:40;;;;;;;3.65;1.92;;;13.90;99.90;;;;;;4974132;28;20145;-75
2022/05/27 10:27:14;;;;;;;1.10;0.88;;;13.80;99.90;;;;;;4977053;28;20125;-74
2022/05/27 10:30:00;;;;;;;1.42;0.95;;;14.00;99.90;;;;;;4964333;28;20047;-74
2022/05/27 10:32:32;;;;;;;1.73;1.17;;;14.10;99.90;;;;;;4974423;28;20050;-74
2022/05/27 10:35:00;;;;;;;2.10;1.30;;;14.10;99.90;;;;;;4941811;28;20485;-74
2022/05/27 10:37:47;;;;;;;2.30;1.73;;;14.10;99.90;;;;;;4979668;28;20057;-74
2022/05/27 10:40:21;;;;;;;3.38;1.33;;;14.20;99.90;;;;;;4981627;28;20069;-75
2022/05/27 10:42:54;;;;;;;0.50;0.50;;;14.20;99.90;;;;;;4982377;28;20050;-75
2022/05/27 10:45:23;;;;;;;2.13;1.05;;;14.10;99.90;;;;;;4983623;28;20042;-76
2022/05/27 10:48:22;;;;;;;4.30;1.63;;;14.00;99.90;;;;;;4985643;28;20062;-77
2022/05/27 10:51:00;;;;;;;9.90;1.38;;;14.00;99.90;;;;;;4980276;28;20069;-76
2022/05/27 10:53:59;;;;;;;3.03;0.88;;;13.90;99.90;;;;;;4978269;28;20126;-77
2022/05/27 10:56:31;;;;;;;1.77;0.70;;;13.80;99.90;;;;;;4971148;28;20054;-78
2022/05/27 11:02:08;;;;;;;0.80;0.80;;;13.90;99.90;;;;;;4954111;28;20145;-74
2022/05/27 11:05:00;;;;;;;1.50;0.80;;;13.90;99.90;;;;;;4973254;28;20281;-76
2022/05/27 11:07:49;;;;;;;1.50;1.27;;;13.90;99.90;;;;;;4978205;28;20492;-75
2022/05/27 11:10:24;;;;;;;3.33;1.70;;;13.90;99.90;;;;;;4974639;28;20069;-76
2022/05/27 11:16:10;;;;;;;4.97;1.67;;;14.00;99.90;;;;;;4982897;28;20056;-76
2022/05/27 11:19:06;;;;;;;3.60;1.40;;;14.00;99.90;;;;;;4975101;28;20045;-74
2022/05/27 11:22:01;;;;;;;1.95;1.58;;;14.00;99.90;;;;;;4985623;28;20437;-74
2022/05/27 11:24:58;;;;;;;1.25;1.10;;;14.10;99.90;;;;;;4965324;28;20098;-76
2022/05/27 11:28:04;;;;;;;1.73;0.95;;;14.10;99.90;;;;;;4993141;28;20053;-79
2022/05/27 11:30:52;;;;;;;3.45;1.50;;;14.10;99.90;;;;;;4949746;28;20710;-80
2022/05/27 11:33:33;;;;;;;6.47;1.92;;;14.00;99.90;;;;;;4974611;28;20047;-74
2022/05/27 11:36:11;;;;;;;2.78;1.50;;;14.10;99.90;;;;;;4969406;28;20567;-74
2022/05/27 11:38:58;;;;;;;3.17;2.20;;;14.10;99.90;;;;;;4970666;28;20055;-74
2022/05/27 11:41:41;;;;;;;1.77;1.33;;;14.10;99.90;;;;;;4963978;28;20038;-73
2022/05/27 11:44:16;;;;;;;12.25;1.33;;;14.00;99.90;;;;;;4975478;28;20104;-74
2022/05/27 11:47:12;;;;;;;2.47;1.83;;;14.00;99.90;;;;;;4971312;28;20034;-73
2022/05/27 11:49:56;;;;;;;5.47;1.63;;;14.10;99.90;;;;;;4972232;28;20042;-74
2022/05/27 11:52:43;;;;;;;1.95;1.80;;;14.20;99.90;;;;;;4981111;28;20050;-74
2022/05/27 11:55:34;;;;;;;1.75;0.80;;;14.40;99.90;;;;;;4970201;28;20437;-74
2022/05/27 11:58:18;;;;;;;3.63;1.60;;;14.40;99.90;;;;;;4981761;28;20054;-74
2022/05/27 12:00:50;;;;;;;2.55;2.10;;;14.40;99.90;;;;;;4981291;28;20108;-73
2022/05/27 12:03:48;;;;;;;2.22;1.30;;;14.40;99.90;;;;;;4979171;28;20042;-73
2022/05/27 12:06:18;;;;;;;6.63;1.95;;;14.40;99.90;;;;;;4980917;28;20563;-74
2022/05/27 12:08:56;;;;;;;3.90;1.35;;;14.30;99.90;;;;;;4980648;28;20124;-73
2022/05/27 12:11:33;;;;;;;2.25;1.23;;;14.40;99.90;;;;;;4964595;28;20054;-74
2022/05/27 12:14:15;;;;;;;7.25;2.65;;;14.30;99.90;;;;;;4981271;28;20043;-74
2022/05/27 12:16:48;;;;;;;3.80;2.13;;;14.20;99.90;;;;;;4970845;28;20046;-73
2022/05/27 12:19:16;;;;;;;3.63;1.52;;;14.30;99.90;;;;;;4980872;28;20053;-72
2022/05/27 12:21:46;;;;;;;4.30;1.40;;;14.20;99.90;;;;;;4983446;28;20070;-72
2022/05/27 12:24:31;;;;;;;2.28;1.25;;;14.20;99.90;;;;;;4980495;28;20046;-73
2022/05/27 12:26:58;;;;;;;7.40;1.27;;;14.30;99.90;;;;;;4981550;28;20685;-73
2022/05/27 12:29:26;;;;;;;1.98;1.70;;;14.20;99.90;;;;;;4981884;28;20046;-72
2022/05/27 12:31:53;;;;;;;4.50;1.67;;;14.20;99.90;;;;;;4964682;28;20405;-72
2022/05/27 12:34:27;;;;;;;5.65;2.17;;;14.10;99.90;;;;;;4982135;28;20043;-73
2022/05/27 12:36:54;;;;;;;3.55;1.60;;;14.10;99.90;;;;;;4979037;28;20113;-73
2022/05/27 12:39:26;;;;;;;2.00;0.65;;;14.10;99.90;;;;;;4981059;28;20382;-73
2022/05/27 12:42:16;;;;;;;4.53;1.90;;;14.00;99.90;;;;;;4980943;28;20129;-73
2022/05/27 12:44:43;;;;;;;3.00;1.20;;;13.90;99.90;;;;;;4979167;28;20699;-72
2022/05/27 12:47:28;;;;;;;1.05;0.82;;;14.00;99.90;;;;;;4982051;28;20056;-72
2022/05/27 12:50:01;;;;;;;3.05;1.08;;;14.00;99.90;;;;;;4982339;28;20459;-72
2022/05/27 12:52:30;;;;;;;1.65;0.98;;;14.00;99.90;;;;;;4981631;28;20038;-72
2022/05/27 12:54:58;;;;;;;19.80;2.47;;;14.10;99.90;;;;;;4982309;28;20046;-72
2022/05/27 13:00:55;;;;;;;14.02;1.95;;;14.20;99.90;;;;;;4983550;28;20062;-72
2022/05/27 13:03:46;;;;;;;2.05;1.75;;;14.40;99.90;;;;;;4985991;28;20053;-73
2022/05/27 13:06:12;;;;;;;3.60;1.60;;;14.60;99.90;;;;;;4979583;28;20061;-72
2022/05/27 13:08:44;;;;;;;2.10;1.10;;;14.60;99.90;;;;;;4985152;28;20050;-72
2022/05/27 13:11:21;;;;;;;4.93;1.38;;;14.50;99.90;;;;;;4984031;28;20502;-73
2022/05/27 13:13:52;;;;;;;3.15;2.15;;;14.50;99.90;;;;;;4984613;28;20091;-72
2022/05/27 13:16:24;;;;;;;3.10;1.48;;;14.50;99.90;;;;;;4984565;28;20588;-74
2022/05/27 13:18:59;;;;;;;3.35;1.02;;;14.50;99.90;;;;;;4985416;28;20489;-75
2022/05/27 13:21:27;;;;;;;0.90;0.90;;;14.40;99.90;;;;;;4984279;28;20065;-76
2022/05/27 13:24:26;;;;;;;0.63;0.63;;;14.40;99.90;;;;;;4972452;28;20085;-74
2022/05/27 13:26:54;;;;;;;2.05;1.45;;;14.50;99.90;;;;;;4976614;28;20050;-74
2022/05/27 13:29:35;;;;;;;1.13;0.65;;;14.50;99.90;;;;;;4985135;28;20042;-74
2022/05/27 13:32:01;;;;;;;1.13;0.97;;;14.60;99.90;;;;;;4983232;28;20048;-75
2022/05/27 13:34:55;;;;;;;2.05;1.38;;;14.70;99.90;;;;;;4984081;28;20043;-75
2022/05/27 13:37:33;;;;;;;3.83;1.52;;;14.70;99.90;;;;;;4970144;28;20048;-75
2022/05/27 13:40:04;;;;;;;7.55;1.88;;;14.80;99.90;;;;;;4968161;28;20039;-72
2022/05/27 13:42:38;;;;;;;4.63;1.45;;;14.90;99.90;;;;;;4975077;28;20117;-72
2022/05/27 13:45:45;;;;;;;4.57;0.88;;;14.80;99.90;;;;;;4973403;28;20046;-75
2022/05/27 13:48:42;;;;;;;3.40;1.90;;;14.80;99.90;;;;;;4983359;28;20058;-75
2022/05/27 13:51:19;;;;;;;4.82;2.13;;;14.60;99.90;;;;;;4984460;28;20058;-75
2022/05/27 13:53:46;;;;;;;1.73;1.60;;;14.60;99.90;;;;;;4981982;28;20062;-75